createdAt,value
2018-11-28T00:00:43.268Z,19.93
2018-11-28T00:03:18.303Z,18.90
2018-11-28T00:05:53.026Z,19.80
2018-11-28T00:08:27.899Z,20.10
2018-11-28T00:11:02.819Z,20.40
2018-11-28T00:13:37.821Z,20.53
2018-11-28T00:16:12.548Z,19.93
2018-11-28T00:18:47.477Z,19.87
2018-11-28T00:21:22.307Z,19.17
2018-11-28T00:23:57.237Z,20.03
2018-11-28T00:26:32.168Z,21.13
2018-11-28T00:29:07.062Z,19.53
2018-11-28T00:31:42.078Z,19.53
2018-11-28T00:34:17.094Z,19.73
2018-11-28T00:36:52.199Z,18.80
2018-11-28T00:39:27.028Z,20.70
2018-11-28T00:42:01.754Z,21.50
2018-11-28T00:44:36.564Z,20.77
2018-11-28T00:47:11.514Z,19.80
2018-11-28T00:49:46.548Z,19.63
2018-11-28T00:52:21.378Z,20.17
2018-11-28T00:54:56.157Z,20.30
2018-11-28T00:57:31.138Z,20.73
2018-11-28T01:00:09.036Z,20.80
2018-11-28T01:02:44.072Z,20.10
2018-11-28T01:05:19.105Z,20.97
2018-11-28T01:07:55.957Z,20.53
2018-11-28T01:10:30.707Z,21.87
2018-11-28T01:13:05.805Z,19.83
2018-11-28T01:15:40.878Z,19.30
2018-11-28T01:18:15.687Z,20.37
2018-11-28T01:20:50.739Z,20.87
2018-11-28T01:23:25.671Z,19.40
2018-11-28T01:26:00.512Z,20.63
2018-11-28T01:28:35.430Z,21.10
2018-11-28T01:31:10.366Z,20.93
2018-11-28T01:33:45.811Z,20.37
2018-11-28T01:36:21.929Z,20.73
2018-11-28T01:38:56.794Z,20.57
2018-11-28T01:41:31.623Z,20.67
2018-11-28T01:44:07.069Z,21.43
2018-11-28T01:46:42.003Z,20.53
2018-11-28T01:49:16.971Z,20.20
2018-11-28T01:51:52.210Z,20.90
2018-11-28T01:54:26.938Z,21.50
2018-11-28T01:57:01.874Z,21.10
2018-11-28T01:59:36.797Z,21.83
2018-11-28T02:02:11.630Z,22.80
2018-11-28T02:04:46.557Z,21.53
2018-11-28T02:07:21.491Z,21.70
2018-11-28T02:09:56.521Z,21.97
2018-11-28T02:12:31.351Z,23.23
2018-11-28T02:15:08.126Z,22.77
2018-11-28T02:17:42.963Z,23.77
2018-11-28T02:20:18.469Z,22.67
2018-11-28T02:22:53.429Z,23.80
2018-11-28T02:25:28.361Z,23.47
2018-11-28T02:28:03.497Z,23.87
2018-11-28T02:30:38.537Z,21.53
2018-11-28T02:33:13.462Z,22.40
2018-11-28T02:35:48.393Z,22.53
2018-11-28T02:38:23.325Z,22.07
2018-11-28T02:40:58.154Z,22.03
2018-11-28T02:43:33.087Z,22.93
2018-11-28T02:46:19.383Z,23.67
2018-11-28T02:48:54.329Z,22.70
2018-11-28T02:51:29.245Z,22.13
2018-11-28T02:54:04.176Z,22.03
2018-11-28T02:56:39.209Z,22.53
2018-11-28T02:59:14.038Z,22.80
2018-11-28T03:01:48.878Z,22.60
2018-11-28T03:04:23.905Z,21.17
2018-11-28T03:06:58.831Z,20.97
2018-11-28T03:09:33.870Z,21.57
2018-11-28T03:12:09.000Z,21.60
2018-11-28T03:14:44.241Z,20.60
2018-11-28T03:17:24.700Z,20.93
2018-11-28T03:19:59.735Z,21.87
2018-11-28T03:22:34.564Z,22.80
2018-11-28T03:25:10.991Z,22.13
2018-11-28T03:27:46.096Z,21.53
2018-11-28T03:30:21.129Z,21.63
2018-11-28T03:32:56.667Z,21.90
2018-11-28T03:35:31.686Z,22.43
2018-11-28T03:38:06.783Z,21.37
2018-11-28T03:40:41.655Z,20.60
2018-11-28T03:43:16.578Z,20.63
2018-11-28T03:45:51.917Z,21.17
2018-11-28T03:48:26.952Z,20.40
2018-11-28T03:51:01.780Z,21.57
2018-11-28T03:53:36.816Z,20.27
2018-11-28T03:56:11.946Z,22.23
2018-11-28T03:58:47.082Z,21.77
2018-11-28T04:01:22.016Z,22.37
2018-11-28T04:03:56.840Z,21.63
2018-11-28T04:06:31.876Z,21.20
2018-11-28T04:09:08.722Z,22.73
2018-11-28T04:11:43.581Z,21.33
2018-11-28T04:14:18.613Z,22.47
2018-11-28T04:16:53.647Z,22.27
2018-11-28T04:19:28.378Z,22.00
2018-11-28T04:22:03.203Z,21.03
2018-11-28T04:24:38.241Z,21.47
2018-11-28T04:27:13.089Z,21.37
2018-11-28T04:29:47.998Z,21.90
2018-11-28T04:32:22.824Z,22.50
2018-11-28T04:34:57.967Z,22.47
2018-11-28T04:37:32.837Z,21.90
2018-11-28T04:40:09.977Z,22.33
2018-11-28T04:42:45.425Z,22.97
2018-11-28T04:45:25.047Z,23.03
2018-11-28T04:47:59.799Z,22.90
2018-11-28T04:50:34.822Z,21.80
2018-11-28T04:53:09.854Z,22.33
2018-11-28T04:55:44.987Z,21.07
2018-11-28T04:58:20.021Z,21.87
2018-11-28T05:00:55.163Z,22.47
2018-11-28T05:03:30.298Z,22.50
2018-11-28T05:06:05.375Z,22.60
2018-11-28T05:08:40.468Z,21.20
2018-11-28T05:11:15.317Z,21.97
2018-11-28T05:13:50.329Z,21.83
2018-11-28T05:16:25.461Z,22.40
2018-11-28T05:19:00.391Z,21.80
2018-11-28T05:21:35.220Z,21.40
2018-11-28T05:24:10.058Z,22.20
2018-11-28T05:26:45.184Z,22.17
2018-11-28T05:29:20.014Z,21.20
2018-11-28T05:31:54.842Z,20.47
2018-11-28T05:34:29.776Z,20.63
2018-11-28T05:37:04.989Z,21.70
2018-11-28T05:39:39.744Z,21.00
2018-11-28T05:42:14.567Z,19.90
2018-11-28T05:44:49.498Z,20.07
2018-11-28T05:47:24.332Z,20.37
2018-11-28T05:49:59.258Z,19.60
2018-11-28T05:52:34.117Z,19.90
2018-11-28T05:55:10.660Z,20.27
2018-11-28T05:57:45.690Z,20.10
2018-11-28T06:00:30.660Z,20.53
2018-11-28T06:03:13.165Z,20.50
2018-11-28T06:05:47.993Z,20.37
2018-11-28T06:08:22.721Z,20.73
2018-11-28T06:10:57.552Z,20.00
2018-11-28T06:13:32.529Z,19.97
2018-11-28T06:16:07.369Z,19.90
2018-11-28T06:18:42.355Z,21.80
2018-11-28T06:21:17.172Z,21.17
2018-11-28T06:23:52.204Z,22.10
2018-11-28T06:26:27.240Z,22.33
2018-11-28T06:29:02.277Z,23.70
2018-11-28T06:31:37.106Z,23.87
2018-11-28T06:34:12.134Z,23.37
2018-11-28T06:36:46.933Z,22.20
2018-11-28T06:39:21.997Z,20.20
2018-11-28T06:41:56.934Z,19.33
2018-11-28T06:44:31.762Z,17.60
2018-11-28T06:47:06.809Z,18.27
2018-11-28T06:49:41.824Z,17.70
2018-11-28T06:52:16.859Z,17.93
2018-11-28T06:54:51.794Z,18.17
2018-11-28T06:57:26.840Z,18.67
2018-11-28T07:00:01.758Z,19.20
2018-11-28T07:02:36.685Z,18.60
2018-11-28T07:05:12.319Z,18.97
2018-11-28T07:07:47.368Z,18.10
2018-11-28T07:10:23.045Z,18.07
2018-11-28T07:12:58.149Z,18.17
2018-11-28T07:15:33.083Z,19.07
2018-11-28T07:18:19.277Z,19.03
2018-11-28T07:20:54.414Z,19.23
2018-11-28T07:23:29.389Z,20.60
2018-11-28T07:26:04.479Z,19.00
2018-11-28T07:28:39.308Z,19.43
2018-11-28T07:31:14.137Z,20.23
2018-11-28T07:33:49.071Z,19.57
2018-11-28T07:36:24.101Z,19.57
2018-11-28T07:38:59.136Z,20.00
2018-11-28T07:41:34.168Z,19.17
2018-11-28T07:44:09.100Z,19.37
2018-11-28T07:46:44.037Z,18.23
2018-11-28T07:49:18.966Z,18.63
2018-11-28T07:51:54.098Z,19.00
2018-11-28T07:54:29.034Z,18.97
2018-11-28T07:57:04.908Z,18.80
2018-11-28T07:59:39.940Z,18.60
2018-11-28T08:02:14.927Z,19.33
2018-11-28T08:04:49.904Z,18.77
2018-11-28T08:07:24.840Z,18.17
2018-11-28T08:09:59.869Z,17.83
2018-11-28T08:12:34.697Z,18.80
2018-11-28T08:15:09.632Z,18.37
2018-11-28T08:17:44.664Z,18.70
2018-11-28T08:20:19.798Z,18.17
2018-11-28T08:22:54.891Z,19.00
2018-11-28T08:25:29.764Z,18.97
2018-11-28T08:28:04.522Z,19.33
2018-11-28T08:30:39.627Z,19.13
2018-11-28T08:33:14.661Z,19.50
2018-11-28T08:35:49.489Z,18.77
2018-11-28T08:38:25.347Z,17.63
2018-11-28T08:41:00.377Z,18.73
2018-11-28T08:43:35.253Z,18.13
2018-11-28T08:46:10.269Z,18.40
2018-11-28T08:48:45.173Z,17.73
2018-11-28T08:51:20.032Z,17.70
2018-11-28T08:53:55.133Z,18.07
2018-11-28T08:56:29.961Z,18.53
2018-11-28T08:59:04.945Z,17.83
2018-11-28T09:01:39.928Z,18.53
2018-11-28T09:04:14.846Z,18.53
2018-11-28T09:06:49.791Z,17.50
2018-11-28T09:09:24.960Z,19.17
2018-11-28T09:11:59.961Z,17.53
2018-11-28T09:14:34.997Z,18.30
2018-11-28T09:17:15.034Z,18.03
2018-11-28T09:19:45.164Z,17.90
2018-11-28T09:22:19.993Z,18.30
2018-11-28T09:24:54.818Z,17.30
2018-11-28T09:27:29.649Z,17.27
2018-11-28T09:30:05.201Z,17.80
2018-11-28T09:32:40.128Z,17.80
2018-11-28T09:35:15.635Z,16.40
2018-11-28T09:37:50.601Z,17.37
2018-11-28T09:40:26.501Z,17.03
2018-11-28T09:43:01.283Z,15.93
2018-11-28T09:45:36.068Z,16.43
2018-11-28T09:48:10.941Z,16.13
2018-11-28T09:50:45.880Z,16.77
2018-11-28T09:53:20.803Z,17.10
2018-11-28T09:55:55.836Z,16.77
2018-11-28T09:58:30.769Z,16.83
2018-11-28T10:01:06.007Z,16.60
2018-11-28T10:03:41.041Z,16.67
2018-11-28T10:06:16.076Z,18.03
2018-11-28T10:08:50.902Z,16.60
2018-11-28T10:11:25.936Z,15.87
2018-11-28T10:14:00.873Z,15.63
2018-11-28T10:16:35.932Z,16.93
2018-11-28T10:19:10.833Z,15.90
2018-11-28T10:21:45.661Z,16.07
2018-11-28T10:24:20.694Z,15.93
2018-11-28T10:26:55.421Z,15.57
2018-11-28T10:29:30.352Z,15.33
2018-11-28T10:32:05.245Z,15.70
2018-11-28T10:34:40.316Z,15.93
2018-11-28T10:37:15.145Z,16.20
2018-11-28T10:39:50.077Z,15.77
2018-11-28T10:42:24.906Z,15.37
2018-11-28T10:44:59.821Z,14.77
2018-11-28T10:47:34.771Z,14.93
2018-11-28T10:50:15.134Z,16.00
2018-11-28T10:52:50.365Z,14.67
2018-11-28T10:55:26.116Z,15.83
2018-11-28T10:58:01.151Z,16.13
2018-11-28T11:00:41.406Z,16.47
2018-11-28T11:03:21.765Z,15.77
2018-11-28T11:06:01.858Z,15.77
2018-11-28T11:08:42.070Z,16.27
2018-11-28T11:11:26.939Z,15.90
2018-11-28T11:14:07.190Z,16.30
2018-11-28T11:16:42.328Z,15.53
2018-11-28T11:19:17.462Z,15.67
2018-11-28T11:21:52.291Z,15.33
2018-11-28T11:24:27.325Z,16.03
2018-11-28T11:27:02.153Z,15.40
2018-11-28T11:29:37.187Z,16.30
2018-11-28T11:32:12.124Z,16.97
2018-11-28T11:34:47.154Z,15.50
2018-11-28T11:37:22.091Z,15.17
2018-11-28T11:39:57.365Z,14.60
2018-11-28T11:42:32.048Z,14.17
2018-11-28T11:45:09.476Z,14.87
2018-11-28T11:47:44.472Z,14.70
2018-11-28T11:50:19.922Z,14.43
2018-11-28T11:52:55.052Z,14.17
2018-11-28T11:55:30.191Z,14.53
2018-11-28T11:58:05.238Z,14.30
2018-11-28T12:00:41.801Z,15.50
2018-11-28T12:03:17.101Z,14.23
2018-11-28T12:05:54.577Z,14.77
2018-11-28T12:08:30.252Z,14.53
2018-11-28T12:11:05.104Z,15.00
2018-11-28T12:13:40.265Z,14.83
2018-11-28T12:16:21.304Z,15.17
2018-11-28T12:18:50.099Z,15.13
2018-11-28T12:21:25.133Z,15.93
2018-11-28T12:24:00.163Z,14.80
2018-11-28T12:26:35.196Z,15.53
2018-11-28T12:29:10.331Z,14.83
2018-11-28T12:31:45.161Z,15.90
2018-11-28T12:34:20.093Z,15.50
2018-11-28T12:36:54.845Z,15.63
2018-11-28T12:39:29.883Z,15.70
2018-11-28T12:42:04.783Z,16.03
2018-11-28T12:44:39.763Z,16.00
2018-11-28T12:47:14.748Z,16.90
2018-11-28T12:49:50.703Z,16.70
2018-11-28T12:52:24.703Z,16.87
2018-11-28T12:54:59.644Z,17.57
2018-11-28T12:57:34.779Z,16.57
2018-11-28T13:00:11.513Z,17.83
2018-11-28T13:02:46.569Z,16.87
2018-11-28T13:05:23.684Z,16.30
2018-11-28T13:07:58.606Z,17.37
2018-11-28T13:10:35.901Z,17.27
2018-11-28T13:13:11.901Z,17.83
2018-11-28T13:15:46.977Z,17.93
2018-11-28T13:18:21.807Z,17.90
2018-11-28T13:20:56.865Z,17.67
2018-11-28T13:23:31.759Z,18.80
2018-11-28T13:26:07.009Z,18.23
2018-11-28T13:28:42.659Z,18.33
2018-11-28T13:31:17.487Z,18.23
2018-11-28T13:33:52.555Z,18.77
2018-11-28T13:36:27.758Z,18.47
2018-11-28T13:39:02.485Z,18.33
2018-11-28T13:41:37.416Z,18.27
2018-11-28T13:44:14.171Z,18.07
2018-11-28T13:46:49.192Z,17.13
2018-11-28T13:49:24.257Z,18.37
2018-11-28T13:51:59.291Z,18.33
2018-11-28T13:55:36.480Z,18.57
2018-11-28T13:57:10.270Z,17.30
2018-11-28T13:59:44.418Z,17.10
2018-11-28T14:02:19.528Z,17.70
2018-11-28T14:04:54.562Z,17.27
2018-11-28T14:07:29.408Z,17.33
2018-11-28T14:10:06.780Z,17.30
2018-11-28T14:12:41.915Z,17.17
2018-11-28T14:15:17.874Z,18.17
2018-11-28T14:17:56.253Z,17.93
2018-11-28T14:20:31.112Z,17.67
2018-11-28T14:23:05.838Z,18.20
2018-11-28T14:25:40.818Z,18.17
2018-11-28T14:28:15.623Z,16.93
2018-11-28T14:30:50.636Z,19.27
2018-11-28T14:33:25.771Z,19.27
2018-11-28T14:36:00.601Z,18.30
2018-11-28T14:38:35.742Z,19.57
2018-11-28T14:41:11.181Z,17.90
2018-11-28T14:43:46.204Z,17.70
2018-11-28T14:46:21.245Z,18.20
2018-11-28T14:48:56.072Z,18.20
2018-11-28T14:51:31.005Z,18.10
2018-11-28T14:54:05.965Z,17.87
2018-11-28T14:56:40.867Z,18.97
2018-11-28T14:59:15.797Z,18.63
2018-11-28T15:01:50.728Z,18.43
2018-11-28T15:04:25.761Z,18.10
2018-11-28T15:07:02.016Z,18.40
2018-11-28T15:09:42.028Z,19.10
2018-11-28T15:12:17.113Z,17.87
2018-11-28T15:14:52.142Z,18.93
2018-11-28T15:17:26.972Z,19.40
2018-11-28T15:20:01.804Z,18.83
2018-11-28T15:22:36.837Z,19.20
2018-11-28T15:25:12.072Z,18.77
2018-11-28T15:27:46.864Z,19.60
2018-11-28T15:30:21.738Z,19.17
2018-11-28T15:32:56.460Z,19.30
2018-11-28T15:35:31.802Z,20.63
2018-11-28T15:38:06.627Z,20.73
2018-11-28T15:40:41.660Z,20.43
2018-11-28T15:43:16.423Z,19.93
2018-11-28T15:45:51.522Z,20.30
2018-11-28T15:48:26.555Z,19.60
2018-11-28T15:51:01.691Z,19.30
2018-11-28T15:53:36.725Z,19.47
2018-11-28T15:56:11.744Z,18.83
2018-11-28T15:58:46.798Z,20.00
2018-11-28T16:01:22.648Z,20.03
2018-11-28T16:03:57.579Z,20.17
2018-11-28T16:06:32.763Z,19.57
2018-11-28T16:09:13.335Z,19.87
2018-11-28T16:11:48.247Z,19.83
2018-11-28T16:14:23.268Z,20.07
2018-11-28T16:16:58.376Z,18.97
2018-11-28T16:19:33.221Z,20.60
2018-11-28T16:22:08.241Z,19.93
2018-11-28T16:24:43.272Z,20.63
2018-11-28T16:27:18.102Z,20.67
2018-11-28T16:29:53.036Z,19.77
2018-11-28T16:32:27.861Z,19.97
2018-11-28T16:35:02.894Z,19.50
2018-11-28T16:37:37.724Z,19.73
2018-11-28T16:40:13.836Z,19.03
2018-11-28T16:42:48.813Z,19.50
2018-11-28T16:45:23.643Z,19.37
2018-11-28T16:47:58.471Z,18.90
2018-11-28T16:50:33.404Z,19.67
2018-11-28T16:53:08.239Z,18.67
2018-11-28T16:55:43.266Z,19.53
2018-11-28T16:58:17.992Z,19.43
2018-11-28T17:00:53.047Z,18.93
2018-11-28T17:03:27.856Z,18.67
2018-11-28T17:06:02.786Z,20.70
2018-11-28T17:08:37.717Z,18.97
2018-11-28T17:11:12.751Z,19.70
2018-11-28T17:13:47.579Z,19.43
2018-11-28T17:16:22.510Z,19.10
2018-11-28T17:18:57.502Z,19.10
2018-11-28T17:21:32.481Z,19.97
2018-11-28T17:24:07.512Z,19.80
2018-11-28T17:26:42.439Z,19.50
2018-11-28T17:29:17.169Z,19.63
2018-11-28T17:31:52.200Z,19.37
2018-11-28T17:34:26.926Z,19.80
2018-11-28T17:37:01.857Z,18.87
2018-11-28T17:39:36.542Z,17.90
2018-11-28T17:42:11.515Z,17.47
2018-11-28T17:44:46.344Z,17.37
2018-11-28T17:47:21.175Z,18.70
2018-11-28T17:49:56.513Z,18.57
2018-11-28T17:52:31.301Z,18.17
2018-11-28T17:55:08.985Z,18.83
2018-11-28T17:57:43.867Z,18.00
2018-11-28T18:00:20.353Z,22.93
2018-11-28T18:02:55.572Z,21.75
2018-11-28T18:05:30.708Z,19.10
2018-11-28T18:08:05.857Z,19.23
2018-11-28T18:10:40.775Z,18.50
2018-11-28T18:13:16.972Z,18.07
2018-11-28T18:15:53.175Z,18.27
2018-11-28T18:18:28.232Z,18.00
2018-11-28T18:21:03.265Z,17.70
2018-11-28T18:23:38.298Z,18.20
2018-11-28T18:26:14.673Z,17.73
2018-11-28T18:28:49.545Z,18.27
2018-11-28T18:31:24.526Z,18.57
2018-11-28T18:33:59.563Z,18.37
2018-11-28T18:36:34.695Z,16.90
2018-11-28T18:39:10.013Z,17.20
2018-11-28T18:41:44.626Z,17.77
2018-11-28T18:44:19.447Z,16.10
2018-11-28T18:46:54.420Z,16.27
2018-11-28T18:49:29.351Z,16.87
2018-11-28T18:52:04.283Z,15.97
2018-11-28T18:54:39.316Z,16.53
2018-11-28T18:57:14.248Z,16.47
2018-11-28T18:59:49.076Z,16.57
2018-11-28T19:02:23.677Z,16.27
2018-11-28T19:04:58.789Z,16.40
2018-11-28T19:07:34.468Z,15.33
2018-11-28T19:10:16.476Z,15.40
2018-11-28T19:12:53.180Z,15.17
2018-11-28T19:15:29.167Z,14.70
2018-11-28T19:18:04.127Z,14.93
2018-11-28T19:20:39.279Z,15.20
2018-11-28T19:23:14.136Z,14.87
2018-11-28T19:25:50.085Z,14.23
2018-11-28T19:28:23.968Z,14.83
2018-11-28T19:30:58.902Z,14.40
2018-11-28T19:33:33.833Z,14.13
2018-11-28T19:36:08.798Z,14.10
2018-11-28T19:38:43.796Z,13.97
2018-11-28T19:41:23.903Z,13.67
2018-11-28T19:43:58.890Z,14.03
2018-11-28T19:46:33.940Z,14.93
2018-11-28T19:49:09.669Z,15.33
2018-11-28T19:51:44.692Z,14.40
2018-11-28T19:54:19.598Z,15.13
2018-11-28T19:56:55.462Z,14.80
2018-11-28T19:59:30.445Z,14.57
2018-11-28T20:02:05.646Z,15.07
2018-11-28T20:04:40.482Z,14.50
2018-11-28T20:07:15.600Z,14.43
2018-11-28T20:09:55.612Z,13.87
2018-11-28T20:12:30.941Z,13.60
2018-11-28T20:15:15.458Z,13.60
2018-11-28T20:17:50.702Z,13.03
2018-11-28T20:20:26.043Z,12.90
2018-11-28T20:23:00.871Z,13.53
2018-11-28T20:25:35.803Z,13.07
2018-11-28T20:28:10.743Z,13.13
2018-11-28T20:30:46.153Z,13.73
2018-11-28T20:33:21.318Z,12.93
2018-11-28T20:35:56.552Z,12.97
2018-11-28T20:38:33.151Z,13.47
2018-11-28T20:41:08.154Z,13.53
2018-11-28T20:43:42.985Z,13.80
2018-11-28T20:46:18.017Z,13.47
2018-11-28T20:48:53.050Z,13.50
2018-11-28T20:51:27.782Z,13.67
2018-11-28T20:54:02.810Z,12.83
2018-11-28T20:56:37.786Z,12.57
2018-11-28T20:59:12.717Z,13.03
2018-11-28T21:01:47.808Z,12.87
2018-11-28T21:04:22.453Z,12.57
2018-11-28T21:07:11.203Z,13.73
2018-11-28T21:09:51.198Z,13.88
2018-11-28T21:12:26.375Z,14.07
2018-11-28T21:15:01.002Z,14.07
2018-11-28T21:17:35.832Z,14.17
2018-11-28T21:20:15.938Z,12.90
2018-11-28T21:22:52.089Z,13.50
2018-11-28T21:25:26.841Z,13.27
2018-11-28T21:28:01.901Z,12.73
2018-11-28T21:30:37.260Z,13.63
2018-11-28T21:33:13.589Z,12.63
2018-11-28T21:35:50.211Z,13.43
2018-11-28T21:38:25.121Z,12.70
2018-11-28T21:41:00.143Z,13.30
2018-11-28T21:43:35.278Z,13.60
2018-11-28T21:46:10.517Z,13.57
2018-11-28T21:48:45.458Z,14.30
2018-11-28T21:51:20.631Z,13.93
2018-11-28T21:53:55.891Z,13.70
2018-11-28T21:56:30.959Z,14.40
2018-11-28T21:59:06.553Z,16.57
2018-11-28T22:01:41.537Z,14.73
2018-11-28T22:04:16.365Z,14.60
2018-11-28T22:06:51.355Z,14.73
2018-11-28T22:09:26.641Z,14.80
2018-11-28T22:12:01.886Z,14.13
2018-11-28T22:14:36.912Z,14.97
2018-11-28T22:17:11.953Z,15.40
2018-11-28T22:19:46.918Z,16.07
2018-11-28T22:22:21.985Z,16.17
2018-11-28T22:24:57.046Z,15.43
2018-11-28T22:27:31.876Z,15.53
2018-11-28T22:30:07.564Z,15.37
2018-11-28T22:32:42.763Z,16.60
2018-11-28T22:35:17.793Z,16.50
2018-11-28T22:37:52.828Z,15.80
2018-11-28T22:40:29.263Z,16.20
2018-11-28T22:43:05.167Z,16.73
2018-11-28T22:45:40.079Z,16.33
2018-11-28T22:48:15.113Z,17.30
2018-11-28T22:50:50.145Z,16.83
2018-11-28T22:53:25.076Z,17.43
2018-11-28T22:56:00.233Z,17.87
2018-11-28T22:58:35.144Z,17.00
2018-11-28T23:01:11.473Z,16.93
2018-11-28T23:03:49.663Z,16.33
2018-11-28T23:06:27.783Z,17.07
2018-11-28T23:09:03.163Z,17.60
2018-11-28T23:11:37.995Z,18.07
2018-11-28T23:14:13.129Z,18.83
2018-11-28T23:16:47.854Z,17.20
2018-11-28T23:19:22.989Z,18.33
2018-11-28T23:21:57.921Z,17.33
2018-11-28T23:24:32.852Z,18.47
2018-11-28T23:27:07.790Z,17.93
2018-11-28T23:29:42.887Z,18.10
2018-11-28T23:32:17.801Z,19.43
2018-11-28T23:34:52.783Z,18.17
2018-11-28T23:37:27.816Z,18.33
2018-11-28T23:40:03.237Z,18.67
2018-11-28T23:42:37.989Z,17.97
2018-11-28T23:45:13.806Z,18.30
2018-11-28T23:47:49.139Z,18.27
2018-11-28T23:50:25.221Z,17.90
2018-11-28T23:52:59.861Z,18.10
2018-11-28T23:55:35.924Z,17.87
